createdAt,value
2023-04-12T00:01:20.831Z,7.86
2023-04-12T00:04:27.416Z,7.95
2023-04-12T00:07:30.299Z,7.86
2023-04-12T00:10:32.697Z,7.74
2023-04-12T00:13:35.079Z,7.73
2023-04-12T00:16:38.932Z,7.59
2023-04-12T00:19:44.882Z,7.64
2023-04-12T00:22:47.327Z,7.65
2023-04-12T00:25:50.880Z,7.63
2023-04-12T00:28:53.377Z,7.69
2023-04-12T00:31:55.856Z,7.74
2023-04-12T00:34:58.471Z,7.61
2023-04-12T00:38:03.289Z,7.59
2023-04-12T00:41:06.047Z,7.49
2023-04-12T00:44:10.078Z,7.43
2023-04-12T00:47:12.722Z,7.53
2023-04-12T00:50:15.783Z,7.42
2023-04-12T00:53:18.216Z,7.38
2023-04-12T00:56:23.822Z,7.34
2023-04-12T00:59:26.629Z,7.35
2023-04-12T01:02:31.031Z,7.39
2023-04-12T01:05:36.582Z,7.28
2023-04-12T01:08:41.997Z,7.31
2023-04-12T01:12:00.614Z,7.34
2023-04-12T01:15:07.751Z,7.31
2023-04-12T01:18:17.429Z,7.14
2023-04-12T01:21:48.493Z,7.19
2023-04-12T01:25:12.449Z,7.19
2023-04-12T01:28:27.880Z,7.07
2023-04-12T01:31:30.488Z,7.16
2023-04-12T01:34:33.386Z,7.25
2023-04-12T01:37:35.804Z,7.11
2023-04-12T01:40:40.934Z,7.12
2023-04-12T01:43:44.349Z,7.07
2023-04-12T01:46:49.565Z,7.14
2023-04-12T01:50:04.571Z,7.03
2023-04-12T01:53:18.874Z,6.99
2023-04-12T01:56:21.344Z,7.01
2023-04-12T01:59:24.404Z,6.99
2023-04-12T02:02:26.954Z,6.98
2023-04-12T02:05:29.609Z,6.79
2023-04-12T02:08:32.007Z,6.84
2023-04-12T02:11:34.838Z,6.83
2023-04-12T02:14:37.606Z,6.82
2023-04-12T02:17:41.017Z,6.94
2023-04-12T02:20:44.972Z,6.77
2023-04-12T02:23:47.469Z,6.87
2023-04-12T02:26:49.965Z,6.75
2023-04-12T02:29:52.662Z,6.79
2023-04-12T02:32:56.233Z,6.85
2023-04-12T02:36:02.854Z,6.85
2023-04-12T02:39:05.486Z,6.68
2023-04-12T02:42:10.814Z,6.66
2023-04-12T02:45:14.575Z,6.64
2023-04-12T02:48:18.452Z,6.73
2023-04-12T02:51:21.845Z,6.72
2023-04-12T02:54:27.213Z,6.70
2023-04-12T02:57:31.761Z,6.68
2023-04-12T03:00:34.325Z,6.72
2023-04-12T03:03:37.777Z,6.69
2023-04-12T03:06:59.128Z,6.76
2023-04-12T03:10:12.066Z,6.68
2023-04-12T03:13:22.336Z,6.57
2023-04-12T03:16:29.729Z,6.69
2023-04-12T03:19:41.916Z,6.56
2023-04-12T03:22:44.358Z,6.57
2023-04-12T03:25:47.882Z,6.58
2023-04-12T03:29:11.195Z,6.71
2023-04-12T03:32:15.898Z,6.70
2023-04-12T03:35:20.890Z,6.63
2023-04-12T03:38:24.228Z,6.64
2023-04-12T03:41:28.812Z,6.55
2023-04-12T03:44:32.740Z,6.63
2023-04-12T03:47:40.023Z,6.52
2023-04-12T03:50:48.422Z,6.47
2023-04-12T03:53:57.311Z,6.58
2023-04-12T03:57:01.959Z,6.55
2023-04-12T04:00:13.784Z,6.55
2023-04-12T04:03:36.013Z,6.49
2023-04-12T04:06:48.777Z,6.45
2023-04-12T04:09:51.780Z,6.46
2023-04-12T04:12:54.838Z,6.46
2023-04-12T04:16:03.804Z,6.56
2023-04-12T04:19:06.455Z,6.55
2023-04-12T04:22:10.247Z,6.59
2023-04-12T04:25:14.302Z,6.59
2023-04-12T04:28:18.382Z,6.59
2023-04-12T04:31:22.441Z,6.62
2023-04-12T04:34:26.540Z,6.67
2023-04-12T04:37:37.213Z,6.56
2023-04-12T04:40:40.781Z,6.61
2023-04-12T04:43:46.916Z,6.62
2023-04-12T04:46:51.711Z,6.70
2023-04-12T04:49:54.060Z,6.82
2023-04-12T04:52:59.644Z,6.92
2023-04-12T04:56:03.665Z,6.90
2023-04-12T04:59:09.861Z,7.00
2023-04-12T05:02:13.346Z,7.04
2023-04-12T05:05:23.632Z,7.10
2023-04-12T05:08:31.292Z,7.10
2023-04-12T05:11:34.229Z,7.22
2023-04-12T05:14:47.255Z,7.36
2023-04-12T05:17:54.070Z,7.44
2023-04-12T05:20:56.819Z,7.61
2023-04-12T05:23:59.501Z,7.74
2023-04-12T05:27:02.190Z,7.80
2023-04-12T05:30:05.280Z,8.04
2023-04-12T05:33:07.796Z,8.04
2023-04-12T05:36:13.729Z,8.15
2023-04-12T05:39:18.813Z,8.24
2023-04-12T05:42:23.685Z,8.35
2023-04-12T05:45:26.351Z,8.58
2023-04-12T05:48:28.921Z,8.66
2023-04-12T05:51:40.856Z,8.62
2023-04-12T05:54:54.012Z,8.77
2023-04-12T05:57:58.779Z,8.86
2023-04-12T06:01:02.857Z,8.91
2023-04-12T06:04:06.218Z,9.05
2023-04-12T06:07:10.087Z,9.26
2023-04-12T06:10:13.817Z,9.36
2023-04-12T06:13:16.505Z,9.41
2023-04-12T06:16:18.967Z,9.56
2023-04-12T06:19:21.602Z,9.64
2023-04-12T06:22:26.081Z,9.68
2023-04-12T06:25:28.763Z,9.77
2023-04-12T06:28:32.900Z,9.83
2023-04-12T06:31:35.428Z,9.90
2023-04-12T06:34:37.964Z,9.98
2023-04-12T06:37:47.259Z,9.94
2023-04-12T06:40:49.660Z,10.05
2023-04-12T06:43:52.065Z,10.14
2023-04-12T06:46:54.468Z,10.15
2023-04-12T06:49:58.280Z,10.25
2023-04-12T06:53:00.879Z,10.34
2023-04-12T06:56:06.741Z,10.42
2023-04-12T06:59:09.465Z,10.56
2023-04-12T07:02:12.135Z,10.72
2023-04-12T07:05:14.718Z,10.73
2023-04-12T07:08:17.238Z,10.90
2023-04-12T07:11:22.576Z,11.10
2023-04-12T07:14:25.852Z,11.30
2023-04-12T07:17:28.425Z,11.37
2023-04-12T07:20:31.119Z,11.50
2023-04-12T07:23:33.721Z,11.54
2023-04-12T07:26:37.742Z,11.82
2023-04-12T07:29:40.373Z,11.90
2023-04-12T07:32:42.900Z,12.14
2023-04-12T07:35:46.848Z,12.25
2023-04-12T07:38:51.582Z,12.42
2023-04-12T07:41:55.192Z,12.58
2023-04-12T07:44:58.062Z,12.66
2023-04-12T07:48:00.635Z,12.78
2023-04-12T07:51:03.421Z,12.91
2023-04-12T07:54:05.931Z,13.10
2023-04-12T07:57:09.000Z,13.36
2023-04-12T08:00:11.961Z,13.39
2023-04-12T08:03:18.048Z,13.26
2023-04-12T08:06:20.925Z,13.64
2023-04-12T08:09:24.619Z,13.74
2023-04-12T08:12:27.272Z,13.96
2023-04-12T08:15:29.879Z,14.13
2023-04-12T08:18:32.315Z,14.45
2023-04-12T08:21:34.907Z,14.58
2023-04-12T08:24:37.350Z,14.61
2023-04-12T08:27:41.632Z,14.63
2023-04-12T08:30:44.119Z,14.73
2023-04-12T08:33:46.793Z,14.82
2023-04-12T08:36:49.178Z,14.82
2023-04-12T08:39:51.995Z,14.84
2023-04-12T08:42:54.467Z,14.95
2023-04-12T08:45:59.616Z,15.27
2023-04-12T08:49:02.038Z,15.18
2023-04-12T08:52:08.250Z,15.10
2023-04-12T08:55:11.295Z,15.16
2023-04-12T08:58:16.159Z,15.35
2023-04-12T09:01:20.571Z,15.41
2023-04-12T09:04:23.984Z,15.74
2023-04-12T09:07:30.751Z,16.13
2023-04-12T09:10:38.107Z,16.32
2023-04-12T09:13:40.758Z,16.67
2023-04-12T09:16:43.210Z,16.80
2023-04-12T09:19:45.913Z,16.78
2023-04-12T09:22:48.947Z,16.88
2023-04-12T09:25:54.245Z,17.09
2023-04-12T09:28:56.619Z,17.28
2023-04-12T09:32:03.847Z,17.33
2023-04-12T09:35:10.326Z,17.45
2023-04-12T09:38:13.112Z,17.69
2023-04-12T09:41:26.501Z,17.80
2023-04-12T09:44:32.906Z,18.38
2023-04-12T09:47:39.619Z,18.33
2023-04-12T09:50:42.846Z,18.63
2023-04-12T09:53:45.160Z,18.64
2023-04-12T09:56:47.495Z,18.84
2023-04-12T09:59:52.709Z,18.84
2023-04-12T10:02:56.312Z,18.91
2023-04-12T10:06:00.145Z,19.04
2023-04-12T10:09:06.697Z,19.07
2023-04-12T10:12:09.613Z,19.28
2023-04-12T10:15:17.647Z,19.54
2023-04-12T10:18:20.513Z,19.57
2023-04-12T10:21:23.452Z,18.42
2023-04-12T10:24:27.195Z,19.10
2023-04-12T10:27:29.561Z,19.54
2023-04-12T10:30:32.248Z,18.82
2023-04-12T10:33:34.796Z,19.81
2023-04-12T10:36:52.256Z,20.76
2023-04-12T10:39:55.165Z,20.60
2023-04-12T10:43:22.599Z,20.63
2023-04-12T10:46:40.615Z,20.74
2023-04-12T10:50:22.163Z,20.68
2023-04-12T10:53:27.483Z,20.91
2023-04-12T10:56:32.100Z,21.87
2023-04-12T10:59:59.664Z,22.00
2023-04-12T11:03:07.611Z,22.02
2023-04-12T11:06:24.128Z,21.87
2023-04-12T11:09:48.766Z,22.25
2023-04-12T11:13:07.529Z,22.71
2023-04-12T11:16:12.930Z,22.78
2023-04-12T11:19:15.731Z,23.40
2023-04-12T11:22:19.175Z,23.42
2023-04-12T11:25:21.627Z,23.60
2023-04-12T11:28:29.013Z,23.77
2023-04-12T11:31:32.888Z,24.43
2023-04-12T11:34:36.000Z,25.33
2023-04-12T11:37:39.111Z,25.22
2023-04-12T11:40:42.059Z,25.30
2023-04-12T11:43:48.505Z,25.85
2023-04-12T11:46:51.748Z,25.78
2023-04-12T11:49:56.134Z,25.72
2023-04-12T11:53:12.704Z,25.89
2023-04-12T11:56:15.248Z,26.89
2023-04-12T11:59:17.468Z,27.23
2023-04-12T12:02:24.100Z,27.48
2023-04-12T12:05:28.054Z,27.78
2023-04-12T12:08:30.729Z,27.28
2023-04-12T12:11:33.181Z,27.30
2023-04-12T12:14:38.342Z,27.52
2023-04-12T12:17:40.767Z,27.55
2023-04-12T12:20:49.979Z,27.26
2023-04-12T12:23:52.460Z,27.91
2023-04-12T12:26:56.108Z,28.23
2023-04-12T12:30:01.640Z,28.64
2023-04-12T12:33:04.366Z,28.90
2023-04-12T12:36:07.831Z,28.44
2023-04-12T12:39:12.055Z,27.75
2023-04-12T12:42:16.948Z,26.69
2023-04-12T12:45:23.231Z,26.75
2023-04-12T12:48:25.721Z,27.04
2023-04-12T12:51:28.362Z,26.95
2023-04-12T12:54:39.346Z,27.50
2023-04-12T12:57:58.354Z,26.75
2023-04-12T13:01:08.662Z,27.98
2023-04-12T13:04:11.368Z,27.59
2023-04-12T13:07:13.971Z,28.11
2023-04-12T13:10:16.440Z,28.54
2023-04-12T13:13:19.371Z,27.98
2023-04-12T13:16:23.966Z,27.77
2023-04-12T13:19:28.094Z,27.30
2023-04-12T13:22:31.463Z,27.96
2023-04-12T13:25:34.048Z,27.62
2023-04-12T13:28:37.052Z,27.16
2023-04-12T13:31:39.517Z,26.49
2023-04-12T13:34:42.149Z,27.34
2023-04-12T13:37:45.818Z,26.27
2023-04-12T13:40:48.294Z,25.97
2023-04-12T13:43:50.905Z,25.60
2023-04-12T13:46:54.081Z,25.16
2023-04-12T13:49:58.099Z,25.45
2023-04-12T13:53:00.483Z,26.62
2023-04-12T13:56:03.010Z,25.90
2023-04-12T13:59:05.247Z,25.70
2023-04-12T14:02:07.824Z,25.75
2023-04-12T14:05:11.693Z,25.18
2023-04-12T14:08:14.261Z,25.17
2023-04-12T14:11:16.718Z,24.99
2023-04-12T14:14:18.972Z,25.30
2023-04-12T14:17:21.588Z,25.85
2023-04-12T14:20:24.103Z,25.57
2023-04-12T14:23:28.205Z,25.35
2023-04-12T14:26:30.570Z,25.64
2023-04-12T14:29:32.978Z,25.34
2023-04-12T14:32:35.621Z,24.70
2023-04-12T14:35:38.352Z,24.87
2023-04-12T14:38:42.073Z,24.71
2023-04-12T14:41:44.628Z,24.50
2023-04-12T14:44:47.061Z,24.60
2023-04-12T14:47:49.550Z,24.83
2023-04-12T14:50:51.887Z,24.79
2023-04-12T14:53:54.247Z,24.71
2023-04-12T14:56:56.953Z,24.62
2023-04-12T14:59:59.569Z,24.67
2023-04-12T15:03:02.387Z,23.56
2023-04-12T15:06:06.695Z,23.93
2023-04-12T15:09:09.951Z,24.18
2023-04-12T15:12:12.309Z,24.15
2023-04-12T15:15:15.778Z,24.12
2023-04-12T15:18:18.236Z,23.36
2023-04-12T15:21:21.110Z,23.13
2023-04-12T15:24:24.441Z,22.96
2023-04-12T15:27:27.171Z,22.17
2023-04-12T15:30:29.634Z,22.18
2023-04-12T15:33:34.661Z,22.61
2023-04-12T15:36:37.301Z,22.32
2023-04-12T15:39:41.432Z,22.09
2023-04-12T15:42:44.271Z,20.86
2023-04-12T15:45:46.819Z,21.23
2023-04-12T15:48:49.142Z,21.59
2023-04-12T15:51:52.988Z,21.33
2023-04-12T15:54:55.662Z,20.96
2023-04-12T15:57:57.850Z,20.90
2023-04-12T16:01:00.116Z,20.61
2023-04-12T16:04:03.493Z,20.42
2023-04-12T16:07:06.208Z,19.31
2023-04-12T16:10:09.185Z,18.44
2023-04-12T16:13:12.098Z,18.02
2023-04-12T16:16:15.637Z,17.92
2023-04-12T16:19:18.843Z,17.75
2023-04-12T16:22:22.028Z,17.39
2023-04-12T16:25:25.475Z,17.08
2023-04-12T16:28:28.565Z,16.95
2023-04-12T16:31:32.051Z,16.92
2023-04-12T16:34:34.471Z,16.66
2023-04-12T16:37:38.592Z,16.52
2023-04-12T16:40:41.537Z,16.62
2023-04-12T16:43:45.513Z,16.39
2023-04-12T16:46:48.853Z,16.16
2023-04-12T16:49:51.383Z,16.10
2023-04-12T16:52:53.911Z,16.12
2023-04-12T16:55:58.106Z,15.92
2023-04-12T16:59:01.305Z,15.82
2023-04-12T17:02:03.783Z,15.56
2023-04-12T17:05:06.672Z,15.48
2023-04-12T17:08:09.827Z,15.55
2023-04-12T17:11:12.296Z,15.45
2023-04-12T17:14:14.940Z,15.46
2023-04-12T17:17:17.358Z,15.23
2023-04-12T17:20:21.015Z,15.05
2023-04-12T17:23:23.414Z,15.04
2023-04-12T17:26:27.388Z,14.80
2023-04-12T17:29:29.978Z,14.67
2023-04-12T17:32:32.989Z,14.56
2023-04-12T17:35:35.582Z,14.48
2023-04-12T17:38:38.078Z,14.38
2023-04-12T17:41:41.259Z,14.28
2023-04-12T17:44:43.503Z,14.13
2023-04-12T17:47:45.865Z,13.93
2023-04-12T17:50:48.312Z,13.73
2023-04-12T17:53:50.837Z,13.55
2023-04-12T17:56:53.510Z,13.40
2023-04-12T17:59:56.083Z,13.23
2023-04-12T18:02:58.574Z,13.04
2023-04-12T18:06:01.167Z,12.91
2023-04-12T18:09:04.175Z,12.81
2023-04-12T18:12:06.621Z,12.58
2023-04-12T18:15:09.669Z,12.53
2023-04-12T18:18:12.533Z,12.61
2023-04-12T18:21:16.424Z,12.40
2023-04-12T18:24:18.792Z,12.27
2023-04-12T18:27:21.277Z,12.38
2023-04-12T18:30:23.716Z,12.37
2023-04-12T18:33:27.719Z,12.15
2023-04-12T18:36:30.444Z,12.05
2023-04-12T18:39:35.567Z,11.92
2023-04-12T18:42:38.107Z,11.88
2023-04-12T18:45:41.194Z,11.93
2023-04-12T18:48:45.641Z,11.84
2023-04-12T18:51:48.329Z,11.79
2023-04-12T18:54:50.895Z,11.74
2023-04-12T18:57:53.366Z,11.59
2023-04-12T19:00:56.288Z,11.54
2023-04-12T19:04:01.745Z,11.50
2023-04-12T19:07:05.010Z,11.46
2023-04-12T19:10:09.144Z,11.42
2023-04-12T19:13:12.305Z,11.19
2023-04-12T19:16:14.829Z,10.89
2023-04-12T19:19:17.655Z,10.71
2023-04-12T19:22:20.247Z,10.65
2023-04-12T19:25:23.150Z,10.57
2023-04-12T19:28:26.882Z,10.90
2023-04-12T19:31:29.460Z,11.08
2023-04-12T19:34:31.976Z,11.16
2023-04-12T19:37:35.095Z,10.94
2023-04-12T19:40:37.991Z,10.74
2023-04-12T19:43:40.701Z,10.71
2023-04-12T19:46:43.172Z,10.65
2023-04-12T19:49:45.728Z,10.54
2023-04-12T19:52:48.858Z,10.47
2023-04-12T19:55:52.481Z,10.39
2023-04-12T19:58:54.996Z,10.38
2023-04-12T20:01:58.289Z,10.31
2023-04-12T20:05:01.452Z,10.33
2023-04-12T20:08:04.019Z,10.50
2023-04-12T20:11:06.537Z,10.37
2023-04-12T20:14:09.348Z,10.24
2023-04-12T20:17:12.199Z,10.20
2023-04-12T20:20:15.394Z,10.36
2023-04-12T20:23:18.459Z,10.27
2023-04-12T20:26:21.329Z,10.37
2023-04-12T20:29:24.108Z,10.47
2023-04-12T20:32:26.934Z,10.23
2023-04-12T20:35:29.466Z,10.00
2023-04-12T20:38:32.120Z,9.93
2023-04-12T20:41:38.197Z,10.13
2023-04-12T20:44:40.654Z,10.15
2023-04-12T20:47:43.249Z,9.98
2023-04-12T20:50:46.505Z,9.85
2023-04-12T20:53:48.836Z,9.84
2023-04-12T20:56:51.215Z,9.69
2023-04-12T20:59:53.781Z,9.50
2023-04-12T21:03:03.210Z,9.55
2023-04-12T21:06:06.887Z,9.51
2023-04-12T21:09:10.178Z,9.47
2023-04-12T21:12:12.852Z,9.46
2023-04-12T21:15:17.964Z,9.46
2023-04-12T21:18:20.876Z,9.41
2023-04-12T21:21:23.317Z,9.63
2023-04-12T21:24:26.174Z,9.55
2023-04-12T21:27:28.948Z,9.41
2023-04-12T21:30:32.327Z,9.43
2023-04-12T21:33:36.682Z,9.49
2023-04-12T21:36:39.962Z,9.24
2023-04-12T21:39:43.719Z,9.23
2023-04-12T21:42:46.204Z,9.34
2023-04-12T21:45:48.783Z,9.38
2023-04-12T21:48:51.593Z,9.28
2023-04-12T21:51:57.033Z,9.25
2023-04-12T21:54:59.498Z,9.19
2023-04-12T21:58:01.975Z,9.20
2023-04-12T22:01:04.643Z,9.14
2023-04-12T22:04:07.860Z,9.13
2023-04-12T22:07:12.778Z,8.96
2023-04-12T22:10:16.263Z,9.02
2023-04-12T22:13:18.558Z,8.98
2023-04-12T22:16:23.026Z,9.00
2023-04-12T22:19:25.913Z,9.09
2023-04-12T22:22:29.311Z,9.26
2023-04-12T22:25:31.920Z,9.34
2023-04-12T22:28:37.896Z,9.29
2023-04-12T22:31:40.309Z,9.33
2023-04-12T22:34:43.258Z,9.16
2023-04-12T22:37:46.192Z,9.07
2023-04-12T22:40:48.670Z,8.87
2023-04-12T22:44:01.542Z,8.82
2023-04-12T22:47:04.539Z,8.79
2023-04-12T22:50:09.324Z,8.64
2023-04-12T22:53:14.274Z,8.82
2023-04-12T22:56:16.896Z,8.98
2023-04-12T22:59:20.086Z,8.98
2023-04-12T23:02:22.702Z,9.16
2023-04-12T23:05:26.240Z,9.12
2023-04-12T23:08:29.372Z,9.27
2023-04-12T23:11:35.801Z,9.33
2023-04-12T23:14:41.186Z,9.39
2023-04-12T23:17:43.629Z,9.41
2023-04-12T23:20:49.421Z,9.41
2023-04-12T23:23:52.724Z,9.35
2023-04-12T23:26:57.893Z,9.46
2023-04-12T23:30:00.232Z,9.56
2023-04-12T23:33:02.772Z,9.56
2023-04-12T23:36:05.718Z,9.49
2023-04-12T23:39:09.598Z,9.55
2023-04-12T23:42:12.341Z,9.72
2023-04-12T23:45:15.046Z,9.79
2023-04-12T23:48:18.394Z,9.70
2023-04-12T23:51:22.131Z,9.73
2023-04-12T23:54:24.794Z,9.72
2023-04-12T23:57:27.278Z,9.57
